sensor_id;sensor_type;location;lat;lon;timestamp;P1;durP1;ratioP1;P2;durP2;ratioP2
17382;SDS011;8809;51.892;8.384;2023-05-19T00:01:45;3.35;;;2.00;;
17382;SDS011;8809;51.892;8.384;2023-05-19T00:04:13;2.47;;;1.95;;
17382;SDS011;8809;51.892;8.384;2023-05-19T00:06:41;5.10;;;2.30;;
17382;SDS011;8809;51.892;8.384;2023-05-19T00:09:11;4.40;;;2.00;;
17382;SDS011;8809;51.892;8.384;2023-05-19T00:11:40;3.35;;;1.80;;
17382;SDS011;8809;51.892;8.384;2023-05-19T00:14:08;3.08;;;2.10;;
17382;SDS011;8809;51.892;8.384;2023-05-19T00:16:36;2.53;;;2.10;;
17382;SDS011;8809;51.892;8.384;2023-05-19T00:19:05;2.65;;;1.98;;
17382;SDS011;8809;51.892;8.384;2023-05-19T00:21:34;3.95;;;1.92;;
17382;SDS011;8809;51.892;8.384;2023-05-19T00:24:03;4.57;;;2.30;;
17382;SDS011;8809;51.892;8.384;2023-05-19T00:26:31;3.28;;;2.20;;
17382;SDS011;8809;51.892;8.384;2023-05-19T00:28:58;3.70;;;2.05;;
17382;SDS011;8809;51.892;8.384;2023-05-19T00:31:25;4.40;;;2.17;;
17382;SDS011;8809;51.892;8.384;2023-05-19T00:33:52;2.58;;;2.03;;
17382;SDS011;8809;51.892;8.384;2023-05-19T00:36:20;3.33;;;2.03;;
17382;SDS011;8809;51.892;8.384;2023-05-19T00:38:47;2.00;;;1.80;;
17382;SDS011;8809;51.892;8.384;2023-05-19T00:41:15;2.97;;;1.83;;
17382;SDS011;8809;51.892;8.384;2023-05-19T00:43:42;2.47;;;1.90;;
17382;SDS011;8809;51.892;8.384;2023-05-19T00:46:10;3.33;;;2.28;;
17382;SDS011;8809;51.892;8.384;2023-05-19T00:48:37;3.53;;;2.10;;
17382;SDS011;8809;51.892;8.384;2023-05-19T00:51:04;3.13;;;1.90;;
17382;SDS011;8809;51.892;8.384;2023-05-19T00:53:32;4.13;;;2.42;;
17382;SDS011;8809;51.892;8.384;2023-05-19T00:56:00;2.85;;;1.85;;
17382;SDS011;8809;51.892;8.384;2023-05-19T00:58:29;2.90;;;2.30;;
17382;SDS011;8809;51.892;8.384;2023-05-19T01:00:57;3.38;;;1.83;;
17382;SDS011;8809;51.892;8.384;2023-05-19T01:03:30;3.28;;;2.25;;
17382;SDS011;8809;51.892;8.384;2023-05-19T01:05:59;3.38;;;2.22;;
17382;SDS011;8809;51.892;8.384;2023-05-19T01:08:30;3.25;;;2.30;;
17382;SDS011;8809;51.892;8.384;2023-05-19T01:10:59;2.00;;;1.80;;
17382;SDS011;8809;51.892;8.384;2023-05-19T01:13:27;2.92;;;2.10;;
17382;SDS011;8809;51.892;8.384;2023-05-19T01:16:01;3.03;;;2.35;;
17382;SDS011;8809;51.892;8.384;2023-05-19T01:18:37;4.47;;;2.60;;
17382;SDS011;8809;51.892;8.384;2023-05-19T01:24:20;3.38;;;1.98;;
17382;SDS011;8809;51.892;8.384;2023-05-19T01:27:04;3.75;;;2.22;;
17382;SDS011;8809;51.892;8.384;2023-05-19T01:29:52;3.65;;;2.10;;
17382;SDS011;8809;51.892;8.384;2023-05-19T01:32:50;3.60;;;2.10;;
17382;SDS011;8809;51.892;8.384;2023-05-19T01:35:20;3.28;;;2.30;;
17382;SDS011;8809;51.892;8.384;2023-05-19T01:37:51;3.15;;;2.10;;
17382;SDS011;8809;51.892;8.384;2023-05-19T01:40:20;2.28;;;2.08;;
17382;SDS011;8809;51.892;8.384;2023-05-19T01:42:48;3.28;;;2.03;;
17382;SDS011;8809;51.892;8.384;2023-05-19T01:45:19;3.35;;;2.20;;
17382;SDS011;8809;51.892;8.384;2023-05-19T01:47:48;2.90;;;2.03;;
17382;SDS011;8809;51.892;8.384;2023-05-19T01:50:16;3.35;;;2.20;;
17382;SDS011;8809;51.892;8.384;2023-05-19T01:52:43;3.63;;;2.42;;
17382;SDS011;8809;51.892;8.384;2023-05-19T01:55:10;3.83;;;2.50;;
17382;SDS011;8809;51.892;8.384;2023-05-19T01:57:40;3.88;;;2.50;;
17382;SDS011;8809;51.892;8.384;2023-05-19T02:00:23;2.72;;;2.13;;
17382;SDS011;8809;51.892;8.384;2023-05-19T02:03:02;3.15;;;2.28;;
17382;SDS011;8809;51.892;8.384;2023-05-19T02:05:39;2.47;;;2.28;;
17382;SDS011;8809;51.892;8.384;2023-05-19T02:08:19;2.92;;;2.40;;
17382;SDS011;8809;51.892;8.384;2023-05-19T02:10:54;3.33;;;2.30;;
17382;SDS011;8809;51.892;8.384;2023-05-19T02:13:28;3.75;;;2.47;;
17382;SDS011;8809;51.892;8.384;2023-05-19T02:15:59;2.60;;;2.30;;
17382;SDS011;8809;51.892;8.384;2023-05-19T02:18:30;2.75;;;2.20;;
17382;SDS011;8809;51.892;8.384;2023-05-19T02:20:59;4.88;;;2.40;;
17382;SDS011;8809;51.892;8.384;2023-05-19T02:23:26;3.72;;;2.65;;
17382;SDS011;8809;51.892;8.384;2023-05-19T02:25:53;4.72;;;2.72;;
17382;SDS011;8809;51.892;8.384;2023-05-19T02:28:22;4.53;;;3.38;;
17382;SDS011;8809;51.892;8.384;2023-05-19T02:30:52;3.80;;;2.35;;
17382;SDS011;8809;51.892;8.384;2023-05-19T02:33:21;3.10;;;2.30;;
17382;SDS011;8809;51.892;8.384;2023-05-19T02:35:53;4.45;;;3.05;;
17382;SDS011;8809;51.892;8.384;2023-05-19T02:38:20;4.10;;;2.42;;
17382;SDS011;8809;51.892;8.384;2023-05-19T02:40:49;3.65;;;2.45;;
17382;SDS011;8809;51.892;8.384;2023-05-19T02:43:16;4.05;;;2.33;;
17382;SDS011;8809;51.892;8.384;2023-05-19T02:45:44;4.32;;;2.85;;
17382;SDS011;8809;51.892;8.384;2023-05-19T02:48:11;3.83;;;2.65;;
17382;SDS011;8809;51.892;8.384;2023-05-19T02:50:39;2.75;;;2.20;;
17382;SDS011;8809;51.892;8.384;2023-05-19T02:53:07;3.53;;;2.40;;
17382;SDS011;8809;51.892;8.384;2023-05-19T02:55:34;2.60;;;2.40;;
17382;SDS011;8809;51.892;8.384;2023-05-19T02:58:01;4.38;;;2.60;;
17382;SDS011;8809;51.892;8.384;2023-05-19T03:00:29;3.85;;;2.75;;
17382;SDS011;8809;51.892;8.384;2023-05-19T03:02:57;4.63;;;2.42;;
17382;SDS011;8809;51.892;8.384;2023-05-19T03:05:27;4.38;;;2.30;;
17382;SDS011;8809;51.892;8.384;2023-05-19T03:07:56;2.63;;;2.30;;
17382;SDS011;8809;51.892;8.384;2023-05-19T03:10:23;3.83;;;2.50;;
17382;SDS011;8809;51.892;8.384;2023-05-19T03:12:50;2.65;;;2.35;;
17382;SDS011;8809;51.892;8.384;2023-05-19T03:15:17;3.78;;;2.30;;
17382;SDS011;8809;51.892;8.384;2023-05-19T03:17:46;3.17;;;2.45;;
17382;SDS011;8809;51.892;8.384;2023-05-19T03:20:13;4.63;;;2.70;;
17382;SDS011;8809;51.892;8.384;2023-05-19T03:22:41;3.33;;;2.55;;
17382;SDS011;8809;51.892;8.384;2023-05-19T03:25:09;3.63;;;2.30;;
17382;SDS011;8809;51.892;8.384;2023-05-19T03:27:36;3.55;;;2.50;;
17382;SDS011;8809;51.892;8.384;2023-05-19T03:30:04;3.97;;;2.45;;
17382;SDS011;8809;51.892;8.384;2023-05-19T03:32:31;3.40;;;2.40;;
17382;SDS011;8809;51.892;8.384;2023-05-19T03:35:02;3.58;;;2.75;;
17382;SDS011;8809;51.892;8.384;2023-05-19T03:37:30;3.83;;;2.72;;
17382;SDS011;8809;51.892;8.384;2023-05-19T03:39:57;3.97;;;2.50;;
17382;SDS011;8809;51.892;8.384;2023-05-19T03:42:26;4.70;;;2.97;;
17382;SDS011;8809;51.892;8.384;2023-05-19T03:44:53;3.75;;;2.60;;
17382;SDS011;8809;51.892;8.384;2023-05-19T03:47:20;5.57;;;3.13;;
17382;SDS011;8809;51.892;8.384;2023-05-19T03:49:47;3.88;;;2.80;;
17382;SDS011;8809;51.892;8.384;2023-05-19T03:52:15;3.63;;;2.60;;
17382;SDS011;8809;51.892;8.384;2023-05-19T03:54:42;4.15;;;2.88;;
17382;SDS011;8809;51.892;8.384;2023-05-19T03:57:09;3.22;;;2.70;;
17382;SDS011;8809;51.892;8.384;2023-05-19T03:59:38;3.70;;;3.00;;
17382;SDS011;8809;51.892;8.384;2023-05-19T04:02:05;4.38;;;3.03;;
17382;SDS011;8809;51.892;8.384;2023-05-19T04:04:32;3.65;;;2.97;;
17382;SDS011;8809;51.892;8.384;2023-05-19T04:06:59;3.33;;;2.70;;
17382;SDS011;8809;51.892;8.384;2023-05-19T04:09:27;3.00;;;2.70;;
17382;SDS011;8809;51.892;8.384;2023-05-19T04:11:56;4.25;;;2.50;;
17382;SDS011;8809;51.892;8.384;2023-05-19T04:14:23;4.10;;;2.90;;
17382;SDS011;8809;51.892;8.384;2023-05-19T04:16:51;3.20;;;2.78;;
17382;SDS011;8809;51.892;8.384;2023-05-19T04:19:19;4.25;;;3.10;;
17382;SDS011;8809;51.892;8.384;2023-05-19T04:21:46;3.22;;;2.90;;
17382;SDS011;8809;51.892;8.384;2023-05-19T04:24:13;2.85;;;2.63;;
17382;SDS011;8809;51.892;8.384;2023-05-19T04:26:40;3.33;;;3.00;;
17382;SDS011;8809;51.892;8.384;2023-05-19T04:29:10;3.65;;;2.83;;
17382;SDS011;8809;51.892;8.384;2023-05-19T04:31:38;4.18;;;2.67;;
17382;SDS011;8809;51.892;8.384;2023-05-19T04:34:07;3.60;;;2.97;;
17382;SDS011;8809;51.892;8.384;2023-05-19T04:36:34;5.85;;;3.60;;
17382;SDS011;8809;51.892;8.384;2023-05-19T04:39:02;4.35;;;3.10;;
17382;SDS011;8809;51.892;8.384;2023-05-19T04:41:32;4.05;;;3.05;;
17382;SDS011;8809;51.892;8.384;2023-05-19T04:43:59;4.93;;;3.10;;
17382;SDS011;8809;51.892;8.384;2023-05-19T04:46:26;3.50;;;3.17;;
17382;SDS011;8809;51.892;8.384;2023-05-19T04:48:54;4.25;;;3.08;;
17382;SDS011;8809;51.892;8.384;2023-05-19T04:51:24;6.55;;;4.20;;
17382;SDS011;8809;51.892;8.384;2023-05-19T04:53:56;5.78;;;4.35;;
17382;SDS011;8809;51.892;8.384;2023-05-19T04:56:23;7.55;;;4.75;;
17382;SDS011;8809;51.892;8.384;2023-05-19T04:58:51;6.25;;;4.70;;
17382;SDS011;8809;51.892;8.384;2023-05-19T05:01:19;5.13;;;4.50;;
17382;SDS011;8809;51.892;8.384;2023-05-19T05:03:50;6.18;;;5.10;;
17382;SDS011;8809;51.892;8.384;2023-05-19T05:06:19;6.22;;;4.47;;
17382;SDS011;8809;51.892;8.384;2023-05-19T05:08:48;5.78;;;4.55;;
17382;SDS011;8809;51.892;8.384;2023-05-19T05:11:15;6.15;;;4.47;;
17382;SDS011;8809;51.892;8.384;2023-05-19T05:13:44;7.45;;;4.55;;
17382;SDS011;8809;51.892;8.384;2023-05-19T05:16:13;4.30;;;3.90;;
17382;SDS011;8809;51.892;8.384;2023-05-19T05:18:41;4.07;;;3.60;;
17382;SDS011;8809;51.892;8.384;2023-05-19T05:21:09;4.95;;;4.03;;
17382;SDS011;8809;51.892;8.384;2023-05-19T05:23:37;4.60;;;3.20;;
17382;SDS011;8809;51.892;8.384;2023-05-19T05:26:08;3.42;;;3.03;;
17382;SDS011;8809;51.892;8.384;2023-05-19T05:28:40;3.47;;;2.80;;
17382;SDS011;8809;51.892;8.384;2023-05-19T05:31:07;3.03;;;2.70;;
17382;SDS011;8809;51.892;8.384;2023-05-19T05:33:34;3.10;;;2.70;;
17382;SDS011;8809;51.892;8.384;2023-05-19T05:36:02;2.80;;;2.55;;
17382;SDS011;8809;51.892;8.384;2023-05-19T05:38:30;3.72;;;3.20;;
17382;SDS011;8809;51.892;8.384;2023-05-19T05:40:57;2.63;;;2.42;;
17382;SDS011;8809;51.892;8.384;2023-05-19T05:43:26;2.90;;;2.60;;
17382;SDS011;8809;51.892;8.384;2023-05-19T05:45:54;3.63;;;2.55;;
17382;SDS011;8809;51.892;8.384;2023-05-19T05:48:21;2.25;;;2.05;;
17382;SDS011;8809;51.892;8.384;2023-05-19T05:50:50;2.95;;;2.35;;
17382;SDS011;8809;51.892;8.384;2023-05-19T05:53:19;3.40;;;2.10;;
17382;SDS011;8809;51.892;8.384;2023-05-19T05:55:47;2.50;;;2.30;;
17382;SDS011;8809;51.892;8.384;2023-05-19T05:58:15;3.65;;;2.38;;
17382;SDS011;8809;51.892;8.384;2023-05-19T06:00:44;3.03;;;2.05;;
17382;SDS011;8809;51.892;8.384;2023-05-19T06:03:12;2.38;;;2.15;;
17382;SDS011;8809;51.892;8.384;2023-05-19T06:05:41;3.25;;;2.40;;
17382;SDS011;8809;51.892;8.384;2023-05-19T06:08:08;2.47;;;1.95;;
17382;SDS011;8809;51.892;8.384;2023-05-19T06:10:35;2.10;;;1.90;;
17382;SDS011;8809;51.892;8.384;2023-05-19T06:13:03;2.22;;;1.98;;
17382;SDS011;8809;51.892;8.384;2023-05-19T06:15:30;2.15;;;1.80;;
17382;SDS011;8809;51.892;8.384;2023-05-19T06:17:58;2.58;;;2.10;;
17382;SDS011;8809;51.892;8.384;2023-05-19T06:20:25;2.25;;;1.95;;
17382;SDS011;8809;51.892;8.384;2023-05-19T06:22:53;2.65;;;2.25;;
17382;SDS011;8809;51.892;8.384;2023-05-19T06:25:22;2.13;;;1.92;;
17382;SDS011;8809;51.892;8.384;2023-05-19T06:27:50;2.03;;;1.80;;
17382;SDS011;8809;51.892;8.384;2023-05-19T06:30:17;2.58;;;1.83;;
17382;SDS011;8809;51.892;8.384;2023-05-19T06:32:44;2.72;;;1.90;;
17382;SDS011;8809;51.892;8.384;2023-05-19T06:35:12;2.40;;;1.80;;
17382;SDS011;8809;51.892;8.384;2023-05-19T06:37:40;2.72;;;1.80;;
17382;SDS011;8809;51.892;8.384;2023-05-19T06:40:08;2.50;;;2.30;;
17382;SDS011;8809;51.892;8.384;2023-05-19T06:42:35;2.20;;;1.98;;
17382;SDS011;8809;51.892;8.384;2023-05-19T06:45:03;1.98;;;1.77;;
17382;SDS011;8809;51.892;8.384;2023-05-19T06:47:31;1.75;;;1.60;;
17382;SDS011;8809;51.892;8.384;2023-05-19T06:49:58;3.67;;;1.60;;
17382;SDS011;8809;51.892;8.384;2023-05-19T06:52:26;3.20;;;1.75;;
17382;SDS011;8809;51.892;8.384;2023-05-19T06:54:55;2.35;;;1.60;;
17382;SDS011;8809;51.892;8.384;2023-05-19T06:57:22;2.55;;;1.75;;
17382;SDS011;8809;51.892;8.384;2023-05-19T06:59:49;2.55;;;1.50;;
17382;SDS011;8809;51.892;8.384;2023-05-19T07:02:16;3.30;;;1.80;;
17382;SDS011;8809;51.892;8.384;2023-05-19T07:04:43;2.60;;;1.80;;
17382;SDS011;8809;51.892;8.384;2023-05-19T07:07:12;3.20;;;1.83;;
17382;SDS011;8809;51.892;8.384;2023-05-19T07:09:40;2.08;;;1.50;;
17382;SDS011;8809;51.892;8.384;2023-05-19T07:12:08;3.95;;;1.63;;
17382;SDS011;8809;51.892;8.384;2023-05-19T07:14:35;3.63;;;1.83;;
17382;SDS011;8809;51.892;8.384;2023-05-19T07:17:03;3.13;;;1.60;;
17382;SDS011;8809;51.892;8.384;2023-05-19T07:19:30;2.47;;;1.50;;
17382;SDS011;8809;51.892;8.384;2023-05-19T07:21:57;2.35;;;1.52;;
17382;SDS011;8809;51.892;8.384;2023-05-19T07:24:25;2.45;;;1.40;;
17382;SDS011;8809;51.892;8.384;2023-05-19T07:26:54;2.38;;;1.17;;
17382;SDS011;8809;51.892;8.384;2023-05-19T07:29:21;3.28;;;1.67;;
17382;SDS011;8809;51.892;8.384;2023-05-19T07:31:48;3.78;;;1.73;;
17382;SDS011;8809;51.892;8.384;2023-05-19T07:34:22;2.55;;;1.23;;
17382;SDS011;8809;51.892;8.384;2023-05-19T07:36:49;2.05;;;1.20;;
17382;SDS011;8809;51.892;8.384;2023-05-19T07:39:17;3.05;;;1.38;;
17382;SDS011;8809;51.892;8.384;2023-05-19T07:41:44;2.03;;;1.38;;
17382;SDS011;8809;51.892;8.384;2023-05-19T07:44:18;3.17;;;1.50;;
17382;SDS011;8809;51.892;8.384;2023-05-19T07:46:45;3.72;;;1.27;;
17382;SDS011;8809;51.892;8.384;2023-05-19T07:49:12;2.85;;;1.30;;
17382;SDS011;8809;51.892;8.384;2023-05-19T07:51:39;2.60;;;1.15;;
17382;SDS011;8809;51.892;8.384;2023-05-19T07:54:07;1.83;;;1.00;;
17382;SDS011;8809;51.892;8.384;2023-05-19T07:56:34;2.45;;;1.20;;
17382;SDS011;8809;51.892;8.384;2023-05-19T07:59:02;2.08;;;1.30;;
17382;SDS011;8809;51.892;8.384;2023-05-19T08:01:31;2.47;;;1.17;;
17382;SDS011;8809;51.892;8.384;2023-05-19T08:03:59;2.15;;;1.30;;
17382;SDS011;8809;51.892;8.384;2023-05-19T08:06:26;2.42;;;1.48;;
17382;SDS011;8809;51.892;8.384;2023-05-19T08:08:54;1.25;;;1.00;;
17382;SDS011;8809;51.892;8.384;2023-05-19T08:11:21;3.08;;;1.45;;
17382;SDS011;8809;51.892;8.384;2023-05-19T08:13:49;2.15;;;1.25;;
17382;SDS011;8809;51.892;8.384;2023-05-19T08:16:16;1.92;;;1.30;;
17382;SDS011;8809;51.892;8.384;2023-05-19T08:18:45;3.15;;;1.30;;
17382;SDS011;8809;51.892;8.384;2023-05-19T08:21:13;2.22;;;1.10;;
17382;SDS011;8809;51.892;8.384;2023-05-19T08:23:40;2.17;;;1.33;;
17382;SDS011;8809;51.892;8.384;2023-05-19T08:26:07;2.65;;;1.63;;
17382;SDS011;8809;51.892;8.384;2023-05-19T08:28:34;1.80;;;1.40;;
17382;SDS011;8809;51.892;8.384;2023-05-19T08:31:02;2.95;;;1.50;;
17382;SDS011;8809;51.892;8.384;2023-05-19T08:33:32;2.70;;;1.38;;
17382;SDS011;8809;51.892;8.384;2023-05-19T08:36:00;1.98;;;1.40;;
17382;SDS011;8809;51.892;8.384;2023-05-19T08:38:28;1.80;;;1.33;;
17382;SDS011;8809;51.892;8.384;2023-05-19T08:40:55;2.85;;;1.25;;
17382;SDS011;8809;51.892;8.384;2023-05-19T08:43:23;4.57;;;1.60;;
17382;SDS011;8809;51.892;8.384;2023-05-19T08:45:51;2.50;;;1.00;;
17382;SDS011;8809;51.892;8.384;2023-05-19T08:48:18;1.63;;;1.10;;
17382;SDS011;8809;51.892;8.384;2023-05-19T08:50:50;1.20;;;0.95;;
17382;SDS011;8809;51.892;8.384;2023-05-19T08:53:39;2.15;;;1.17;;
17382;SDS011;8809;51.892;8.384;2023-05-19T08:56:10;2.78;;;1.20;;
17382;SDS011;8809;51.892;8.384;2023-05-19T08:58:40;1.98;;;1.00;;
17382;SDS011;8809;51.892;8.384;2023-05-19T09:01:08;3.45;;;1.10;;
17382;SDS011;8809;51.892;8.384;2023-05-19T09:03:36;1.42;;;1.00;;
17382;SDS011;8809;51.892;8.384;2023-05-19T09:06:04;2.95;;;1.10;;
17382;SDS011;8809;51.892;8.384;2023-05-19T09:08:33;1.83;;;1.00;;
17382;SDS011;8809;51.892;8.384;2023-05-19T09:11:02;3.65;;;1.20;;
17382;SDS011;8809;51.892;8.384;2023-05-19T09:13:29;3.20;;;1.30;;
17382;SDS011;8809;51.892;8.384;2023-05-19T09:15:56;1.27;;;1.00;;
17382;SDS011;8809;51.892;8.384;2023-05-19T09:18:25;2.95;;;1.20;;
17382;SDS011;8809;51.892;8.384;2023-05-19T09:20:55;2.28;;;1.27;;
17382;SDS011;8809;51.892;8.384;2023-05-19T09:23:25;2.30;;;1.23;;
17382;SDS011;8809;51.892;8.384;2023-05-19T09:25:54;3.25;;;1.20;;
17382;SDS011;8809;51.892;8.384;2023-05-19T09:28:24;2.85;;;1.20;;
17382;SDS011;8809;51.892;8.384;2023-05-19T09:31:01;1.60;;;1.08;;
17382;SDS011;8809;51.892;8.384;2023-05-19T09:33:31;2.17;;;1.10;;
17382;SDS011;8809;51.892;8.384;2023-05-19T09:36:00;1.33;;;1.10;;
17382;SDS011;8809;51.892;8.384;2023-05-19T09:38:27;1.23;;;0.90;;
17382;SDS011;8809;51.892;8.384;2023-05-19T09:40:55;1.33;;;1.00;;
17382;SDS011;8809;51.892;8.384;2023-05-19T09:43:27;2.13;;;1.17;;
17382;SDS011;8809;51.892;8.384;2023-05-19T09:45:57;1.83;;;1.00;;
17382;SDS011;8809;51.892;8.384;2023-05-19T09:48:26;2.22;;;1.00;;
17382;SDS011;8809;51.892;8.384;2023-05-19T09:50:53;2.28;;;0.90;;
17382;SDS011;8809;51.892;8.384;2023-05-19T09:53:23;2.75;;;1.30;;
17382;SDS011;8809;51.892;8.384;2023-05-19T09:55:53;2.10;;;1.20;;
17382;SDS011;8809;51.892;8.384;2023-05-19T09:58:21;2.70;;;1.30;;
17382;SDS011;8809;51.892;8.384;2023-05-19T10:00:51;2.17;;;1.08;;
17382;SDS011;8809;51.892;8.384;2023-05-19T10:03:20;2.40;;;1.23;;
17382;SDS011;8809;51.892;8.384;2023-05-19T10:05:48;2.03;;;1.10;;
17382;SDS011;8809;51.892;8.384;2023-05-19T10:08:16;2.75;;;1.05;;
17382;SDS011;8809;51.892;8.384;2023-05-19T10:10:44;2.17;;;1.05;;
17382;SDS011;8809;51.892;8.384;2023-05-19T10:13:13;1.52;;;1.02;;
17382;SDS011;8809;51.892;8.384;2023-05-19T10:15:41;1.67;;;1.00;;
17382;SDS011;8809;51.892;8.384;2023-05-19T10:18:11;2.25;;;1.20;;
17382;SDS011;8809;51.892;8.384;2023-05-19T10:20:41;1.73;;;0.85;;
17382;SDS011;8809;51.892;8.384;2023-05-19T10:23:09;3.25;;;1.30;;
17382;SDS011;8809;51.892;8.384;2023-05-19T10:25:38;2.33;;;1.33;;
17382;SDS011;8809;51.892;8.384;2023-05-19T10:28:08;2.40;;;1.38;;
17382;SDS011;8809;51.892;8.384;2023-05-19T10:30:40;3.13;;;1.40;;
17382;SDS011;8809;51.892;8.384;2023-05-19T10:33:13;2.15;;;1.10;;
17382;SDS011;8809;51.892;8.384;2023-05-19T10:35:49;1.70;;;1.13;;
17382;SDS011;8809;51.892;8.384;2023-05-19T10:38:34;2.15;;;1.30;;
17382;SDS011;8809;51.892;8.384;2023-05-19T10:41:09;1.98;;;1.00;;
17382;SDS011;8809;51.892;8.384;2023-05-19T10:43:43;2.17;;;1.13;;
17382;SDS011;8809;51.892;8.384;2023-05-19T10:46:14;2.50;;;0.93;;
17382;SDS011;8809;51.892;8.384;2023-05-19T10:48:44;2.08;;;1.20;;
17382;SDS011;8809;51.892;8.384;2023-05-19T10:51:13;1.85;;;1.20;;
17382;SDS011;8809;51.892;8.384;2023-05-19T10:53:41;1.27;;;0.90;;
17382;SDS011;8809;51.892;8.384;2023-05-19T10:56:12;2.83;;;1.48;;
17382;SDS011;8809;51.892;8.384;2023-05-19T10:58:55;2.55;;;1.05;;
17382;SDS011;8809;51.892;8.384;2023-05-19T11:01:22;2.17;;;0.98;;
17382;SDS011;8809;51.892;8.384;2023-05-19T11:04:03;1.48;;;1.08;;
17382;SDS011;8809;51.892;8.384;2023-05-19T11:06:31;2.33;;;1.20;;
17382;SDS011;8809;51.892;8.384;2023-05-19T11:09:00;2.47;;;1.30;;
17382;SDS011;8809;51.892;8.384;2023-05-19T11:11:44;2.03;;;1.00;;
17382;SDS011;8809;51.892;8.384;2023-05-19T11:14:13;1.35;;;1.00;;
17382;SDS011;8809;51.892;8.384;2023-05-19T11:16:45;1.55;;;1.05;;
17382;SDS011;8809;51.892;8.384;2023-05-19T11:19:18;2.47;;;1.30;;
17382;SDS011;8809;51.892;8.384;2023-05-19T11:21:52;1.55;;;0.88;;
17382;SDS011;8809;51.892;8.384;2023-05-19T11:24:33;1.20;;;0.85;;
17382;SDS011;8809;51.892;8.384;2023-05-19T11:27:20;1.75;;;1.25;;
17382;SDS011;8809;51.892;8.384;2023-05-19T11:29:50;1.48;;;1.00;;
17382;SDS011;8809;51.892;8.384;2023-05-19T11:32:19;1.65;;;1.17;;
17382;SDS011;8809;51.892;8.384;2023-05-19T11:34:48;1.15;;;0.80;;
17382;SDS011;8809;51.892;8.384;2023-05-19T11:37:15;2.15;;;1.30;;
17382;SDS011;8809;51.892;8.384;2023-05-19T11:39:43;1.70;;;0.90;;
17382;SDS011;8809;51.892;8.384;2023-05-19T11:42:11;3.63;;;1.10;;
17382;SDS011;8809;51.892;8.384;2023-05-19T11:44:39;1.60;;;0.90;;
17382;SDS011;8809;51.892;8.384;2023-05-19T11:47:08;2.17;;;1.10;;
17382;SDS011;8809;51.892;8.384;2023-05-19T11:49:37;3.15;;;1.23;;
17382;SDS011;8809;51.892;8.384;2023-05-19T11:52:05;4.88;;;1.45;;
17382;SDS011;8809;51.892;8.384;2023-05-19T11:54:33;2.40;;;1.20;;
17382;SDS011;8809;51.892;8.384;2023-05-19T11:57:01;2.33;;;1.40;;
17382;SDS011;8809;51.892;8.384;2023-05-19T11:59:28;4.25;;;1.10;;
17382;SDS011;8809;51.892;8.384;2023-05-19T12:01:59;1.95;;;1.00;;
17382;SDS011;8809;51.892;8.384;2023-05-19T12:04:29;1.38;;;1.05;;
17382;SDS011;8809;51.892;8.384;2023-05-19T12:06:56;3.47;;;1.40;;
17382;SDS011;8809;51.892;8.384;2023-05-19T12:09:28;1.33;;;1.10;;
17382;SDS011;8809;51.892;8.384;2023-05-19T12:11:55;2.22;;;1.10;;
17382;SDS011;8809;51.892;8.384;2023-05-19T12:14:24;1.65;;;1.20;;
17382;SDS011;8809;51.892;8.384;2023-05-19T12:16:52;1.73;;;0.95;;
17382;SDS011;8809;51.892;8.384;2023-05-19T12:19:21;1.58;;;0.90;;
17382;SDS011;8809;51.892;8.384;2023-05-19T12:21:50;1.83;;;1.10;;
17382;SDS011;8809;51.892;8.384;2023-05-19T12:24:18;1.20;;;0.90;;
17382;SDS011;8809;51.892;8.384;2023-05-19T12:26:47;1.73;;;1.20;;
17382;SDS011;8809;51.892;8.384;2023-05-19T12:29:14;2.30;;;0.98;;
17382;SDS011;8809;51.892;8.384;2023-05-19T12:31:41;1.60;;;1.00;;
17382;SDS011;8809;51.892;8.384;2023-05-19T12:34:12;2.20;;;0.88;;
17382;SDS011;8809;51.892;8.384;2023-05-19T12:36:39;3.33;;;1.17;;
17382;SDS011;8809;51.892;8.384;2023-05-19T12:39:07;1.65;;;0.98;;
17382;SDS011;8809;51.892;8.384;2023-05-19T12:41:34;1.15;;;0.90;;
17382;SDS011;8809;51.892;8.384;2023-05-19T12:44:13;1.55;;;1.00;;
17382;SDS011;8809;51.892;8.384;2023-05-19T12:46:41;2.13;;;1.10;;
17382;SDS011;8809;51.892;8.384;2023-05-19T12:49:09;3.08;;;1.10;;
17382;SDS011;8809;51.892;8.384;2023-05-19T12:51:37;2.08;;;1.00;;
17382;SDS011;8809;51.892;8.384;2023-05-19T12:54:04;1.77;;;1.25;;
17382;SDS011;8809;51.892;8.384;2023-05-19T12:56:32;1.92;;;1.20;;
17382;SDS011;8809;51.892;8.384;2023-05-19T12:59:00;5.07;;;1.20;;
17382;SDS011;8809;51.892;8.384;2023-05-19T13:01:28;2.80;;;1.55;;
17382;SDS011;8809;51.892;8.384;2023-05-19T13:03:56;3.83;;;1.75;;
17382;SDS011;8809;51.892;8.384;2023-05-19T13:06:24;3.65;;;1.85;;
17382;SDS011;8809;51.892;8.384;2023-05-19T13:08:53;2.85;;;1.50;;
17382;SDS011;8809;51.892;8.384;2023-05-19T13:11:25;4.20;;;1.80;;
17382;SDS011;8809;51.892;8.384;2023-05-19T13:13:53;3.53;;;1.30;;
17382;SDS011;8809;51.892;8.384;2023-05-19T13:16:22;3.28;;;1.52;;
17382;SDS011;8809;51.892;8.384;2023-05-19T13:18:50;2.83;;;1.35;;
17382;SDS011;8809;51.892;8.384;2023-05-19T13:21:18;3.15;;;1.30;;
17382;SDS011;8809;51.892;8.384;2023-05-19T13:23:45;3.22;;;1.30;;
17382;SDS011;8809;51.892;8.384;2023-05-19T13:26:12;5.05;;;1.20;;
17382;SDS011;8809;51.892;8.384;2023-05-19T13:28:40;2.03;;;1.00;;
17382;SDS011;8809;51.892;8.384;2023-05-19T13:31:07;2.67;;;1.30;;
17382;SDS011;8809;51.892;8.384;2023-05-19T13:33:34;1.92;;;1.15;;
17382;SDS011;8809;51.892;8.384;2023-05-19T13:36:03;5.00;;;1.67;;
17382;SDS011;8809;51.892;8.384;2023-05-19T13:38:30;2.42;;;1.30;;
17382;SDS011;8809;51.892;8.384;2023-05-19T13:40:57;4.20;;;1.45;;
17382;SDS011;8809;51.892;8.384;2023-05-19T13:43:25;2.40;;;1.20;;
17382;SDS011;8809;51.892;8.384;2023-05-19T13:45:52;1.10;;;1.00;;
17382;SDS011;8809;51.892;8.384;2023-05-19T13:48:19;1.67;;;1.13;;
17382;SDS011;8809;51.892;8.384;2023-05-19T13:50:47;1.73;;;1.25;;
17382;SDS011;8809;51.892;8.384;2023-05-19T13:53:19;3.38;;;1.33;;
17382;SDS011;8809;51.892;8.384;2023-05-19T13:55:47;2.33;;;1.10;;
17382;SDS011;8809;51.892;8.384;2023-05-19T13:58:17;1.55;;;1.08;;
17382;SDS011;8809;51.892;8.384;2023-05-19T14:00:45;1.42;;;1.05;;
17382;SDS011;8809;51.892;8.384;2023-05-19T14:03:14;2.83;;;1.30;;
17382;SDS011;8809;51.892;8.384;2023-05-19T14:05:43;1.38;;;1.10;;
17382;SDS011;8809;51.892;8.384;2023-05-19T14:08:13;2.17;;;1.02;;
17382;SDS011;8809;51.892;8.384;2023-05-19T14:10:43;2.08;;;1.13;;
17382;SDS011;8809;51.892;8.384;2023-05-19T14:13:13;3.10;;;1.10;;
17382;SDS011;8809;51.892;8.384;2023-05-19T14:15:40;2.13;;;1.13;;
17382;SDS011;8809;51.892;8.384;2023-05-19T14:18:08;2.00;;;1.13;;
17382;SDS011;8809;51.892;8.384;2023-05-19T14:20:35;1.10;;;0.98;;
17382;SDS011;8809;51.892;8.384;2023-05-19T14:23:03;2.38;;;1.15;;
17382;SDS011;8809;51.892;8.384;2023-05-19T14:25:30;1.35;;;1.20;;
17382;SDS011;8809;51.892;8.384;2023-05-19T14:27:59;2.65;;;1.10;;
17382;SDS011;8809;51.892;8.384;2023-05-19T14:30:26;1.83;;;1.08;;
17382;SDS011;8809;51.892;8.384;2023-05-19T14:32:54;1.63;;;1.38;;
17382;SDS011;8809;51.892;8.384;2023-05-19T14:35:21;2.13;;;1.15;;
17382;SDS011;8809;51.892;8.384;2023-05-19T14:37:48;1.90;;;1.08;;
17382;SDS011;8809;51.892;8.384;2023-05-19T14:40:16;2.05;;;1.05;;
17382;SDS011;8809;51.892;8.384;2023-05-19T14:42:44;3.13;;;1.15;;
17382;SDS011;8809;51.892;8.384;2023-05-19T14:45:13;1.95;;;0.85;;
17382;SDS011;8809;51.892;8.384;2023-05-19T14:47:40;1.60;;;1.13;;
17382;SDS011;8809;51.892;8.384;2023-05-19T14:50:08;3.15;;;1.25;;
17382;SDS011;8809;51.892;8.384;2023-05-19T14:52:35;2.25;;;1.08;;
17382;SDS011;8809;51.892;8.384;2023-05-19T14:55:02;1.52;;;1.20;;
17382;SDS011;8809;51.892;8.384;2023-05-19T14:57:30;1.85;;;1.10;;
17382;SDS011;8809;51.892;8.384;2023-05-19T14:59:57;1.10;;;1.00;;
17382;SDS011;8809;51.892;8.384;2023-05-19T15:02:26;1.67;;;1.05;;
17382;SDS011;8809;51.892;8.384;2023-05-19T15:04:53;1.40;;;1.02;;
17382;SDS011;8809;51.892;8.384;2023-05-19T15:07:20;3.13;;;1.30;;
17382;SDS011;8809;51.892;8.384;2023-05-19T15:09:48;2.05;;;1.20;;
17382;SDS011;8809;51.892;8.384;2023-05-19T15:12:16;3.67;;;1.23;;
17382;SDS011;8809;51.892;8.384;2023-05-19T15:14:43;1.25;;;1.00;;